Time;durP1;ratioP1;P1;durP2;ratioP2;P2;SDS_P1;SDS_P2;PMS_P1;PMS_P2;Temp;Humidity;BMP_temperature;BMP_pressure;BME280_temperature;BME280_humidity;BME280_pressure;Samples;Min_cycle;Max_cycle;Signal;HPM_P1;HPM_P2
2022/08/25 00:00:28;;;;;;;5.25;2.65;;;;;;;;;;5047752;28;20020;-47
2022/08/25 00:02:54;;;;;;;3.72;2.30;;;;;;;;;;5045903;28;20040;-45
2022/08/25 00:05:20;;;;;;;5.50;2.72;;;;;;;;;;5047858;28;20165;-47
2022/08/25 00:07:46;;;;;;;2.50;2.30;;;;;;;;;;5048579;28;20025;-46
2022/08/25 00:10:11;;;;;;;7.15;2.85;;;;;;;;;;5032565;28;20419;-47
2022/08/25 00:12:37;;;;;;;8.00;2.63;;;;;;;;;;5043917;28;20021;-46
2022/08/25 00:15:04;;;;;;;4.35;2.90;;;;;;;;;;5043380;28;20028;-46
2022/08/25 00:17:30;;;;;;;3.80;2.60;;;;;;;;;;5043602;28;20029;-46
2022/08/25 00:19:56;;;;;;;3.40;2.60;;;;;;;;;;5045921;28;20021;-46
2022/08/25 00:22:21;;;;;;;3.60;2.40;;;;;;;;;;5045696;28;20369;-50
2022/08/25 00:24:47;;;;;;;2.90;2.60;;;;;;;;;;5046928;28;20029;-47
2022/08/25 00:27:12;;;;;;;5.05;2.72;;;;;;;;;;5046167;28;20063;-48
2022/08/25 00:29:38;;;;;;;4.80;2.42;;;;;;;;;;5047169;28;20080;-50
2022/08/25 00:32:04;;;;;;;4.07;2.97;;;;;;;;;;5042357;28;20032;-47
2022/08/25 00:34:35;;;;;;;6.05;2.40;;;;;;;;;;5044877;28;20099;-45
2022/08/25 00:37:05;;;;;;;9.32;2.80;;;;;;;;;;5043810;28;20036;-48
2022/08/25 00:39:30;;;;;;;3.15;2.78;;;;;;;;;;5030825;28;20473;-49
2022/08/25 00:41:57;;;;;;;10.20;2.60;;;;;;;;;;5046480;28;20032;-47
2022/08/25 00:44:25;;;;;;;12.45;2.97;;;;;;;;;;5045088;28;20030;-46
2022/08/25 00:46:55;;;;;;;4.70;2.90;;;;;;;;;;5045837;28;20548;-46
2022/08/25 00:49:24;;;;;;;3.00;2.72;;;;;;;;;;5045562;28;20037;-49
2022/08/25 00:51:57;;;;;;;5.78;3.13;;;;;;;;;;5044150;28;20406;-46
2022/08/25 00:54:31;;;;;;;3.30;2.80;;;;;;;;;;5042654;28;20075;-47
2022/08/25 00:56:59;;;;;;;4.53;2.90;;;;;;;;;;5047713;28;20445;-48
2022/08/25 00:59:25;;;;;;;3.42;2.50;;;;;;;;;;5047834;28;20024;-48
2022/08/25 01:01:52;;;;;;;3.13;2.33;;;;;;;;;;5042517;28;20533;-46
2022/08/25 01:04:19;;;;;;;2.85;2.58;;;;;;;;;;5042843;28;20393;-46
2022/08/25 01:06:47;;;;;;;3.15;2.47;;;;;;;;;;5046659;28;20033;-46
2022/08/25 01:09:14;;;;;;;6.30;2.80;;;;;;;;;;5045183;28;20387;-48
2022/08/25 01:11:45;;;;;;;3.25;2.58;;;;;;;;;;5042949;28;20037;-46
2022/08/25 01:14:13;;;;;;;4.53;2.70;;;;;;;;;;5042886;28;20516;-49
2022/08/25 01:16:40;;;;;;;4.03;3.00;;;;;;;;;;5044687;28;20470;-46
2022/08/25 01:19:07;;;;;;;3.00;2.70;;;;;;;;;;5046903;28;20033;-47
2022/08/25 01:21:39;;;;;;;10.90;2.60;;;;;;;;;;5046347;28;20028;-49
2022/08/25 01:24:05;;;;;;;3.05;2.58;;;;;;;;;;5045493;28;20037;-53
2022/08/25 01:26:33;;;;;;;3.90;2.58;;;;;;;;;;5044300;28;20255;-49
2022/08/25 01:29:21;;;;;;;4.35;3.08;;;;;;;;;;5046132;28;20111;-48
2022/08/25 01:31:49;;;;;;;6.70;3.08;;;;;;;;;;5043440;28;20040;-47
2022/08/25 01:34:18;;;;;;;3.47;2.58;;;;;;;;;;5042493;28;20032;-50
2022/08/25 01:36:44;;;;;;;4.93;3.00;;;;;;;;;;5046471;28;20060;-46
2022/08/25 01:39:11;;;;;;;5.22;3.20;;;;;;;;;;5046711;28;20103;-51
2022/08/25 01:42:13;;;;;;;3.10;2.38;;;;;;;;;;5046336;28;20078;-48
2022/08/25 01:44:42;;;;;;;4.50;2.63;;;;;;;;;;4966537;28;20035;-48
2022/08/25 01:47:08;;;;;;;3.38;2.53;;;;;;;;;;4971293;28;20500;-45
2022/08/25 01:49:35;;;;;;;6.93;2.83;;;;;;;;;;4966559;28;20062;-46
2022/08/25 01:52:26;;;;;;;9.18;2.88;;;;;;;;;;4966885;28;20058;-47
2022/08/25 01:54:52;;;;;;;2.78;2.40;;;;;;;;;;4967362;28;20419;-47
2022/08/25 01:57:18;;;;;;;5.97;2.53;;;;;;;;;;4967079;28;20035;-45
2022/08/25 01:59:44;;;;;;;4.25;2.53;;;;;;;;;;4967796;28;20031;-45
2022/08/25 02:02:10;;;;;;;3.83;2.70;;;;;;;;;;4967302;28;20050;-47
2022/08/25 02:04:36;;;;;;;4.38;2.47;;;;;;;;;;4967820;28;20550;-45
2022/08/25 02:07:05;;;;;;;4.65;2.55;;;;;;;;;;4967059;28;20033;-49
2022/08/25 02:09:31;;;;;;;3.38;2.30;;;;;;;;;;4966812;28;20524;-46
2022/08/25 02:11:58;;;;;;;4.57;2.55;;;;;;;;;;4966740;28;20570;-45
2022/08/25 02:14:24;;;;;;;4.50;2.60;;;;;;;;;;4966937;28;20047;-46
2022/08/25 02:16:52;;;;;;;3.35;2.45;;;;;;;;;;4965988;28;20115;-47
2022/08/25 02:19:20;;;;;;;3.90;2.53;;;;;;;;;;4967247;28;20031;-37
2022/08/25 02:21:46;;;;;;;5.05;2.75;;;;;;;;;;5004376;28;20778;-46
2022/08/25 02:24:13;;;;;;;6.82;2.35;;;;;;;;;;5044547;28;20029;-47
2022/08/25 02:26:39;;;;;;;10.85;2.85;;;;;;;;;;5046089;28;20079;-47
2022/08/25 02:29:06;;;;;;;7.30;2.53;;;;;;;;;;5043231;28;20040;-48
2022/08/25 02:31:33;;;;;;;3.50;2.25;;;;;;;;;;5042230;28;20056;-45
2022/08/25 02:34:00;;;;;;;7.03;2.78;;;;;;;;;;5045569;28;20037;-47
2022/08/25 02:36:27;;;;;;;4.15;2.67;;;;;;;;;;5045954;28;20037;-46
2022/08/25 02:38:53;;;;;;;9.20;3.08;;;;;;;;;;5046173;28;20028;-48
2022/08/25 02:41:22;;;;;;;3.95;2.75;;;;;;;;;;5045318;28;20032;-47
2022/08/25 02:43:49;;;;;;;2.72;2.50;;;;;;;;;;5044933;28;20071;-47
2022/08/25 02:46:18;;;;;;;8.27;2.78;;;;;;;;;;5041970;28;20081;-50
2022/08/25 02:48:44;;;;;;;5.93;2.30;;;;;;;;;;5038767;28;20044;-47
2022/08/25 02:51:11;;;;;;;6.32;2.65;;;;;;;;;;5045246;28;20474;-47
2022/08/25 02:53:41;;;;;;;3.45;2.20;;;;;;;;;;5046338;28;20112;-46
2022/08/25 02:56:11;;;;;;;3.25;2.55;;;;;;;;;;5046572;28;20098;-45
2022/08/25 02:58:38;;;;;;;4.03;2.60;;;;;;;;;;5042881;28;20033;-46
2022/08/25 03:01:06;;;;;;;3.00;2.50;;;;;;;;;;5041410;28;20021;-48
2022/08/25 03:03:32;;;;;;;6.03;2.58;;;;;;;;;;5038906;28;20385;-45
2022/08/25 03:05:59;;;;;;;3.58;2.65;;;;;;;;;;5042229;28;20035;-46
2022/08/25 03:08:25;;;;;;;5.60;2.55;;;;;;;;;;5044337;28;20540;-47
2022/08/25 03:10:51;;;;;;;6.03;2.70;;;;;;;;;;5040554;28;20026;-46
2022/08/25 03:13:17;;;;;;;5.05;2.30;;;;;;;;;;5044668;28;20728;-46
2022/08/25 03:15:43;;;;;;;5.32;2.60;;;;;;;;;;5042911;28;20029;-45
2022/08/25 03:18:10;;;;;;;4.53;2.45;;;;;;;;;;5044153;28;20498;-46
2022/08/25 03:20:37;;;;;;;4.00;2.50;;;;;;;;;;5042310;28;20569;-45
2022/08/25 03:23:05;;;;;;;3.03;2.72;;;;;;;;;;5042800;28;20037;-49
2022/08/25 03:28:16;;;;;;;3.72;2.85;;;;;;;;;;5039813;28;20117;-46
2022/08/25 03:30:42;;;;;;;3.05;2.75;;;;;;;;;;5045819;28;20448;-49
2022/08/25 03:33:08;;;;;;;2.60;2.40;;;;;;;;;;5044150;28;20106;-47
2022/08/25 03:35:33;;;;;;;4.38;2.50;;;;;;;;;;5042667;28;20044;-45
2022/08/25 03:38:00;;;;;;;5.25;2.40;;;;;;;;;;5044667;28;20366;-47
2022/08/25 03:40:26;;;;;;;3.60;2.70;;;;;;;;;;5047441;28;20037;-46
2022/08/25 03:42:55;;;;;;;5.50;2.53;;;;;;;;;;5048786;28;20053;-45
2022/08/25 03:45:22;;;;;;;3.53;2.63;;;;;;;;;;5048058;28;20723;-46
2022/08/25 03:47:49;;;;;;;6.03;2.90;;;;;;;;;;5049635;28;20032;-46
2022/08/25 03:50:17;;;;;;;2.50;2.13;;;;;;;;;;5043871;28;20032;-47
2022/08/25 03:52:44;;;;;;;2.72;2.50;;;;;;;;;;5045186;28;20017;-45
2022/08/25 03:55:13;;;;;;;7.43;2.40;;;;;;;;;;5042700;28;20045;-47
2022/08/25 03:57:39;;;;;;;6.78;2.92;;;;;;;;;;5028045;28;20029;-45
2022/08/25 04:00:09;;;;;;;3.78;2.50;;;;;;;;;;5049308;28;20031;-47
2022/08/25 04:02:34;;;;;;;3.17;2.60;;;;;;;;;;5043562;28;20112;-47
2022/08/25 04:05:00;;;;;;;9.95;3.13;;;;;;;;;;5044947;28;20096;-49
2022/08/25 04:07:26;;;;;;;5.45;2.60;;;;;;;;;;5043717;28;20084;-48
2022/08/25 04:09:54;;;;;;;5.38;2.15;;;;;;;;;;5048173;28;20037;-45
2022/08/25 04:12:19;;;;;;;4.45;2.40;;;;;;;;;;5050660;28;20039;-46
2022/08/25 04:14:45;;;;;;;2.78;2.53;;;;;;;;;;5045356;28;20456;-50
2022/08/25 04:17:10;;;;;;;6.30;2.63;;;;;;;;;;5045547;28;20509;-45
2022/08/25 04:19:37;;;;;;;2.92;2.20;;;;;;;;;;5044620;28;20037;-46
2022/08/25 04:22:03;;;;;;;5.45;2.60;;;;;;;;;;5049937;28;20035;-49
2022/08/25 04:24:28;;;;;;;3.20;2.40;;;;;;;;;;5047790;28;20033;-45
2022/08/25 04:26:55;;;;;;;2.97;2.55;;;;;;;;;;5040658;28;20029;-53
2022/08/25 04:29:22;;;;;;;2.50;2.25;;;;;;;;;;5047984;28;20086;-45
2022/08/25 04:31:49;;;;;;;6.75;2.67;;;;;;;;;;5045868;28;20028;-45
2022/08/25 04:34:20;;;;;;;3.55;2.33;;;;;;;;;;5046558;28;20025;-46
2022/08/25 04:36:46;;;;;;;4.10;2.42;;;;;;;;;;5042673;28;20103;-47
2022/08/25 04:39:12;;;;;;;4.50;2.83;;;;;;;;;;5039974;28;20128;-46
2022/08/25 04:41:38;;;;;;;6.15;2.75;;;;;;;;;;5047743;28;20035;-48
2022/08/25 04:44:05;;;;;;;3.00;2.60;;;;;;;;;;5039996;28;20017;-50
2022/08/25 04:46:32;;;;;;;4.72;2.53;;;;;;;;;;5039732;28;20141;-46
2022/08/25 04:48:59;;;;;;;4.03;2.75;;;;;;;;;;5044556;28;20027;-45
2022/08/25 04:51:38;;;;;;;6.72;2.70;;;;;;;;;;5047430;28;20028;-45
2022/08/25 04:54:07;;;;;;;5.32;2.47;;;;;;;;;;5040565;28;20079;-44
2022/08/25 04:56:32;;;;;;;4.50;3.17;;;;;;;;;;5040685;28;20485;-48
2022/08/25 04:59:10;;;;;;;4.35;3.00;;;;;;;;;;5042462;28;20032;-49
2022/08/25 05:01:37;;;;;;;3.58;2.40;;;;;;;;;;5037553;28;20029;-45
2022/08/25 05:04:06;;;;;;;4.07;2.55;;;;;;;;;;5047586;28;20456;-47
2022/08/25 05:06:32;;;;;;;4.43;2.58;;;;;;;;;;5043906;28;20517;-45
2022/08/25 05:08:58;;;;;;;16.17;2.67;;;;;;;;;;5044774;28;20133;-49
2022/08/25 05:11:25;;;;;;;2.83;2.60;;;;;;;;;;5047958;28;20362;-47
2022/08/25 05:13:53;;;;;;;3.97;2.75;;;;;;;;;;5043474;28;20033;-46
2022/08/25 05:16:21;;;;;;;3.17;2.45;;;;;;;;;;5043915;28;20025;-46
2022/08/25 05:18:47;;;;;;;5.53;2.83;;;;;;;;;;5042928;28;20017;-45
2022/08/25 05:21:16;;;;;;;5.72;2.80;;;;;;;;;;5043674;28;20052;-45
2022/08/25 05:23:42;;;;;;;3.72;2.72;;;;;;;;;;5047081;28;20029;-45
2022/08/25 05:26:14;;;;;;;4.90;2.50;;;;;;;;;;5042856;28;20083;-44
2022/08/25 05:28:40;;;;;;;4.85;2.47;;;;;;;;;;5043392;28;20017;-45
2022/08/25 05:31:08;;;;;;;8.70;2.88;;;;;;;;;;5041123;28;20045;-50
2022/08/25 05:33:35;;;;;;;3.45;2.25;;;;;;;;;;5043481;28;20037;-51
2022/08/25 05:36:01;;;;;;;4.03;2.50;;;;;;;;;;5047964;28;20083;-47
2022/08/25 05:38:27;;;;;;;4.35;2.60;;;;;;;;;;5043646;28;20040;-45
2022/08/25 05:41:09;;;;;;;6.95;2.75;;;;;;;;;;5043184;28;20017;-49
2022/08/25 05:43:36;;;;;;;3.58;2.67;;;;;;;;;;5027797;28;20028;-48
2022/08/25 05:46:02;;;;;;;5.57;2.70;;;;;;;;;;5045619;28;20044;-45
2022/08/25 05:48:28;;;;;;;4.40;2.30;;;;;;;;;;5041559;28;20060;-46
2022/08/25 05:50:57;;;;;;;3.70;2.60;;;;;;;;;;5045165;28;20059;-49
2022/08/25 05:53:24;;;;;;;3.80;2.38;;;;;;;;;;5042927;28;20489;-46
2022/08/25 05:55:52;;;;;;;8.02;2.28;;;;;;;;;;5041537;28;20053;-45
2022/08/25 05:58:19;;;;;;;11.73;2.35;;;;;;;;;;5045349;28;20099;-45
2022/08/25 06:00:45;;;;;;;1.98;1.80;;;;;;;;;;5044597;28;20021;-47
2022/08/25 06:03:10;;;;;;;3.92;2.28;;;;;;;;;;5041952;28;20017;-48
2022/08/25 06:05:36;;;;;;;3.55;2.30;;;;;;;;;;5044304;28;20032;-45
2022/08/25 06:08:02;;;;;;;6.72;2.30;;;;;;;;;;5046853;28;20021;-45
2022/08/25 06:10:28;;;;;;;3.92;2.10;;;;;;;;;;5045493;28;20501;-48
2022/08/25 06:12:55;;;;;;;3.28;2.30;;;;;;;;;;5045446;28;20053;-46
2022/08/25 06:15:23;;;;;;;6.60;2.72;;;;;;;;;;5044958;28;20451;-48
2022/08/25 06:17:49;;;;;;;3.47;2.20;;;;;;;;;;5046178;28;20040;-46
2022/08/25 06:20:18;;;;;;;5.28;2.42;;;;;;;;;;5042874;28;20056;-45
2022/08/25 06:22:45;;;;;;;5.43;2.50;;;;;;;;;;5044107;28;20020;-48
2022/08/25 06:25:14;;;;;;;2.65;1.88;;;;;;;;;;5040266;28;20243;-45
2022/08/25 06:27:40;;;;;;;4.05;2.13;;;;;;;;;;5046616;28;20032;-46
2022/08/25 06:30:08;;;;;;;6.38;2.15;;;;;;;;;;5043766;28;20021;-48
2022/08/25 06:32:36;;;;;;;2.78;2.30;;;;;;;;;;5045464;28;20025;-46
2022/08/25 06:35:08;;;;;;;3.47;2.10;;;;;;;;;;5045311;28;20029;-45
2022/08/25 06:37:34;;;;;;;4.03;2.10;;;;;;;;;;5039446;28;20037;-46
2022/08/25 06:40:00;;;;;;;5.55;2.55;;;;;;;;;;5041237;28;20035;-46
2022/08/25 06:42:26;;;;;;;2.78;2.30;;;;;;;;;;5046628;28;20051;-45
2022/08/25 06:44:51;;;;;;;2.60;2.10;;;;;;;;;;5043749;28;20493;-47
2022/08/25 06:47:18;;;;;;;7.82;2.20;;;;;;;;;;5042946;28;20120;-46
2022/08/25 06:49:45;;;;;;;5.57;1.92;;;;;;;;;;5047056;28;20066;-46
2022/08/25 06:52:11;;;;;;;2.70;2.03;;;;;;;;;;5047028;28;20036;-46
2022/08/25 06:54:37;;;;;;;2.25;2.00;;;;;;;;;;5046204;28;20060;-46
2022/08/25 06:57:03;;;;;;;3.45;2.10;;;;;;;;;;5040186;28;20053;-45
2022/08/25 06:59:29;;;;;;;2.70;2.20;;;;;;;;;;5045277;28;20025;-47
2022/08/25 07:01:55;;;;;;;7.13;2.10;;;;;;;;;;5045199;28;20029;-45
2022/08/25 07:04:20;;;;;;;2.42;2.20;;;;;;;;;;5044127;28;20021;-46
2022/08/25 07:06:46;;;;;;;3.20;2.15;;;;;;;;;;5042800;28;20049;-45
2022/08/25 07:09:13;;;;;;;2.45;1.85;;;;;;;;;;5040735;28;20040;-45
2022/08/25 07:11:43;;;;;;;1.98;1.77;;;;;;;;;;5043627;28;20033;-48
2022/08/25 07:14:10;;;;;;;6.93;2.58;;;;;;;;;;5048650;28;20032;-44
2022/08/25 07:16:36;;;;;;;2.88;1.90;;;;;;;;;;5047465;28;20021;-45
2022/08/25 07:19:04;;;;;;;4.32;2.00;;;;;;;;;;5047848;28;20033;-47
2022/08/25 07:21:32;;;;;;;6.05;2.15;;;;;;;;;;5047570;28;20044;-46
2022/08/25 07:23:59;;;;;;;2.35;1.98;;;;;;;;;;5043067;28;20461;-46
2022/08/25 07:26:29;;;;;;;2.35;2.05;;;;;;;;;;5045494;28;20404;-48
2022/08/25 07:28:56;;;;;;;3.20;2.13;;;;;;;;;;5046708;28;20025;-45
2022/08/25 07:31:21;;;;;;;4.20;2.00;;;;;;;;;;5048229;28;20043;-46
2022/08/25 07:36:32;;;;;;;2.70;1.90;;;;;;;;;;5047181;28;20075;-45
2022/08/25 07:38:58;;;;;;;2.83;2.33;;;;;;;;;;5049358;28;20087;-48
2022/08/25 07:41:25;;;;;;;2.95;2.00;;;;;;;;;;5048349;28;20033;-52
2022/08/25 07:43:51;;;;;;;6.80;2.50;;;;;;;;;;5049170;28;20033;-45
2022/08/25 07:46:17;;;;;;;7.68;2.70;;;;;;;;;;5047954;28;20029;-46
2022/08/25 07:48:43;;;;;;;12.70;3.90;;;;;;;;;;5050157;28;20354;-46
2022/08/25 07:51:11;;;;;;;14.52;4.53;;;;;;;;;;5047715;28;20488;-51
2022/08/25 07:53:37;;;;;;;16.05;4.93;;;;;;;;;;5049114;28;20021;-46
2022/08/25 07:56:10;;;;;;;11.90;4.10;;;;;;;;;;5046101;28;20047;-45
2022/08/25 07:58:36;;;;;;;12.07;4.20;;;;;;;;;;5044726;28;20029;-45
2022/08/25 08:01:02;;;;;;;7.25;4.43;;;;;;;;;;5047742;28;20469;-48
2022/08/25 08:03:29;;;;;;;14.45;4.53;;;;;;;;;;5043082;28;20461;-46
2022/08/25 08:05:58;;;;;;;11.10;5.13;;;;;;;;;;5048409;28;20029;-48
2022/08/25 08:08:24;;;;;;;10.57;4.80;;;;;;;;;;5045993;28;20048;-47
2022/08/25 08:10:49;;;;;;;11.60;4.22;;;;;;;;;;5046583;28;20377;-47
2022/08/25 08:13:16;;;;;;;6.45;2.92;;;;;;;;;;5047820;28;20040;-46
2022/08/25 08:15:42;;;;;;;8.00;3.55;;;;;;;;;;5046161;28;20040;-48
2022/08/25 08:18:09;;;;;;;8.25;3.33;;;;;;;;;;5043284;28;20037;-47
2022/08/25 08:20:35;;;;;;;4.63;3.03;;;;;;;;;;5048170;28;20079;-46
2022/08/25 08:23:01;;;;;;;8.48;2.60;;;;;;;;;;5044219;28;20436;-47
2022/08/25 08:25:27;;;;;;;13.45;3.25;;;;;;;;;;5050600;28;20060;-48
2022/08/25 08:27:53;;;;;;;6.43;2.83;;;;;;;;;;5047240;28;20083;-48
2022/08/25 08:30:20;;;;;;;6.55;2.90;;;;;;;;;;5043543;28;20032;-51
2022/08/25 08:32:48;;;;;;;3.90;2.50;;;;;;;;;;5045634;28;20025;-49
2022/08/25 08:35:16;;;;;;;7.70;3.60;;;;;;;;;;5044591;28;20095;-46
2022/08/25 08:37:42;;;;;;;5.65;3.00;;;;;;;;;;5045293;28;20039;-46
2022/08/25 08:40:08;;;;;;;5.40;2.28;;;;;;;;;;5048551;28;20017;-46
2022/08/25 08:42:45;;;;;;;3.33;1.98;;;;;;;;;;5043892;28;20037;-46
2022/08/25 08:45:37;;;;;;;4.03;2.55;;;;;;;;;;5044958;28;20029;-46
2022/08/25 08:48:19;;;;;;;3.90;2.47;;;;;;;;;;5047368;28;20571;-47
2022/08/25 08:51:06;;;;;;;4.75;2.47;;;;;;;;;;5042607;28;20036;-48
2022/08/25 08:54:17;;;;;;;6.30;2.38;;;;;;;;;;5047069;28;20580;-46
2022/08/25 08:56:47;;;;;;;3.38;2.63;;;;;;;;;;4962575;28;20081;-49
2022/08/25 08:59:18;;;;;;;8.73;3.53;;;;;;;;;;4967070;28;20186;-48
2022/08/25 09:02:01;;;;;;;12.68;3.67;;;;;;;;;;4958481;28;20031;-50
2022/08/25 09:04:43;;;;;;;8.45;3.75;;;;;;;;;;4963697;28;20447;-50
2022/08/25 09:07:29;;;;;;;8.13;3.90;;;;;;;;;;4963506;28;20050;-48
2022/08/25 09:09:55;;;;;;;9.45;3.53;;;;;;;;;;4960707;28;20027;-46
2022/08/25 09:12:28;;;;;;;20.38;5.88;;;;;;;;;;4968865;28;20406;-45
2022/08/25 09:15:23;;;;;;;20.02;5.18;;;;;;;;;;4963371;28;20515;-48
2022/08/25 09:18:03;;;;;;;14.63;4.65;;;;;;;;;;4925024;29;20122;-46
2022/08/25 09:20:41;;;;;;;17.42;5.50;;;;;;;;;;4928539;29;20070;-46
2022/08/25 09:23:32;;;;;;;19.30;4.63;;;;;;;;;;4924059;29;20501;-46
2022/08/25 09:26:28;;;;;;;9.88;3.58;;;;;;;;;;4925372;29;20127;-49
2022/08/25 09:29:08;;;;;;;12.48;4.65;;;;;;;;;;4924241;29;20075;-46
2022/08/25 09:31:39;;;;;;;18.15;5.35;;;;;;;;;;4938410;28;20106;-45
2022/08/25 09:34:11;;;;;;;16.17;4.80;;;;;;;;;;4967120;28;20057;-46
2022/08/25 09:36:37;;;;;;;10.25;3.67;;;;;;;;;;4964281;28;20082;-47
2022/08/25 09:39:04;;;;;;;20.30;4.38;;;;;;;;;;4966858;28;20030;-45
2022/08/25 09:41:49;;;;;;;10.55;3.78;;;;;;;;;;4961827;28;20428;-46
2022/08/25 09:44:40;;;;;;;5.45;2.33;;;;;;;;;;4965911;28;20042;-47
2022/08/25 09:47:19;;;;;;;7.17;2.67;;;;;;;;;;4961119;28;20549;-46
2022/08/25 09:49:48;;;;;;;7.85;2.33;;;;;;;;;;4963852;28;20038;-47
2022/08/25 09:52:32;;;;;;;7.28;2.92;;;;;;;;;;4964775;28;20031;-48
2022/08/25 09:55:24;;;;;;;6.72;2.47;;;;;;;;;;4998297;28;20093;-47
2022/08/25 09:57:51;;;;;;;;;;;;;;;;;;5034030;28;20075;-49
2022/08/25 10:00:32;;;;;;;6.15;2.75;;;;;;;;;;5047869;28;19917;-46
2022/08/25 10:03:09;;;;;;;6.10;2.70;;;;;;;;;;5046651;28;20025;-48
2022/08/25 10:05:53;;;;;;;5.15;2.40;;;;;;;;;;5045315;28;20124;-46
2022/08/25 10:08:34;;;;;;;5.65;2.78;;;;;;;;;;5038724;28;20020;-47
2022/08/25 10:11:04;;;;;;;4.72;2.28;;;;;;;;;;5054612;28;20025;-50
2022/08/25 10:13:49;;;;;;;4.00;2.50;;;;;;;;;;5045992;28;20042;-46
2022/08/25 10:16:23;;;;;;;5.80;2.00;;;;;;;;;;5042898;28;20021;-48
2022/08/25 10:19:23;;;;;;;4.82;1.80;;;;;;;;;;5044196;28;20054;-44
2022/08/25 10:22:07;;;;;;;2.47;1.80;;;;;;;;;;5044296;28;20091;-47
2022/08/25 10:24:33;;;;;;;11.20;3.17;;;;;;;;;;5046733;28;20091;-46
2022/08/25 10:27:21;;;;;;;9.93;3.88;;;;;;;;;;5045176;28;20025;-47
2022/08/25 10:29:56;;;;;;;8.57;3.63;;;;;;;;;;5041198;28;20086;-47
2022/08/25 10:32:30;;;;;;;11.50;4.15;;;;;;;;;;5045891;28;20060;-46
2022/08/25 10:34:58;;;;;;;6.22;3.17;;;;;;;;;;5046227;28;20028;-47
2022/08/25 10:37:44;;;;;;;7.20;3.38;;;;;;;;;;5045520;28;20029;-47
2022/08/25 10:40:19;;;;;;;5.68;3.03;;;;;;;;;;5045681;28;20478;-48
2022/08/25 10:42:57;;;;;;;9.18;3.60;;;;;;;;;;5040862;28;20115;-48
2022/08/25 10:45:43;;;;;;;11.10;3.60;;;;;;;;;;5044101;28;20025;-47
2022/08/25 10:48:30;;;;;;;13.60;3.55;;;;;;;;;;5047882;28;20426;-46
2022/08/25 10:51:09;;;;;;;15.10;3.60;;;;;;;;;;5049548;28;20385;-47
2022/08/25 10:53:56;;;;;;;9.98;3.20;;;;;;;;;;5049465;28;20033;-47
2022/08/25 10:56:27;;;;;;;5.75;2.72;;;;;;;;;;5045783;28;20051;-46
2022/08/25 10:59:36;;;;;;;9.32;2.92;;;;;;;;;;5045092;28;20025;-47
2022/08/25 11:02:27;;;;;;;10.60;3.20;;;;;;;;;;5005937;28;20033;-47
2022/08/25 11:05:05;;;;;;;9.00;3.00;;;;;;;;;;5008058;28;20037;-47
2022/08/25 11:07:48;;;;;;;4.38;2.90;;;;;;;;;;5005305;28;20487;-50
2022/08/25 11:10:20;;;;;;;8.63;2.72;;;;;;;;;;5006994;28;20045;-46
2022/08/25 11:12:53;;;;;;;6.60;2.58;;;;;;;;;;5002152;28;20281;-47
2022/08/25 11:15:32;;;;;;;7.80;2.50;;;;;;;;;;5001935;28;20108;-46
2022/08/25 11:18:05;;;;;;;10.93;2.45;;;;;;;;;;4986475;28;20053;-47
2022/08/25 11:21:06;;;;;;;3.63;2.22;;;;;;;;;;5002859;28;20038;-47
2022/08/25 11:23:57;;;;;;;3.80;2.20;;;;;;;;;;5002561;28;20054;-50
2022/08/25 11:26:32;;;;;;;4.15;2.35;;;;;;;;;;5006336;28;20066;-49
2022/08/25 11:29:09;;;;;;;2.75;2.13;;;;;;;;;;5001624;28;20089;-50
2022/08/25 11:31:42;;;;;;;3.17;2.10;;;;;;;;;;5006233;28;20041;-47
2022/08/25 11:34:10;;;;;;;15.35;2.40;;;;;;;;;;5003658;28;20088;-49
2022/08/25 11:36:39;;;;;;;3.25;2.25;;;;;;;;;;5038028;28;20037;-46
2022/08/25 11:39:10;;;;;;;6.15;2.00;;;;;;;;;;5049371;28;20021;-47
2022/08/25 11:41:55;;;;;;;4.60;1.90;;;;;;;;;;5047883;28;20029;-46
2022/08/25 11:44:40;;;;;;;3.30;2.00;;;;;;;;;;5044279;28;20033;-49
2022/08/25 11:47:14;;;;;;;3.85;1.90;;;;;;;;;;5048951;28;20041;-47
2022/08/25 11:49:43;;;;;;;1.65;1.48;;;;;;;;;;5049032;28;20063;-47
2022/08/25 11:52:44;;;;;;;4.20;1.40;;;;;;;;;;5047378;28;20025;-45
2022/08/25 11:55:20;;;;;;;3.97;1.53;;;;;;;;;;5048664;28;20440;-47
2022/08/25 11:57:49;;;;;;;2.40;1.40;;;;;;;;;;5059787;28;20370;-52
2022/08/25 12:00:33;;;;;;;2.35;1.55;;;;;;;;;;5046052;28;20029;-46
2022/08/25 12:03:19;;;;;;;3.92;1.38;;;;;;;;;;5048697;28;20033;-46
2022/08/25 12:06:09;;;;;;;3.47;1.85;;;;;;;;;;5042844;28;23587;-50
2022/08/25 12:08:52;;;;;;;2.25;1.90;;;;;;;;;;5041978;28;20033;-50
2022/08/25 12:11:37;;;;;;;7.82;1.70;;;;;;;;;;5045205;28;20112;-48
2022/08/25 12:14:20;;;;;;;3.83;1.63;;;;;;;;;;5046498;28;20122;-49
2022/08/25 12:16:55;;;;;;;4.97;1.50;;;;;;;;;;5044220;28;20656;-46
2022/08/25 12:19:48;;;;;;;3.67;1.73;;;;;;;;;;5048720;28;20116;-47
2022/08/25 12:22:21;;;;;;;2.17;1.50;;;;;;;;;;5040013;28;20439;-50
2022/08/25 12:24:53;;;;;;;6.80;1.45;;;;;;;;;;5044505;28;20063;-51
2022/08/25 12:27:24;;;;;;;3.75;1.67;;;;;;;;;;5048330;28;20083;-47
2022/08/25 12:30:16;;;;;;;2.08;1.67;;;;;;;;;;5045718;28;20044;-48
2022/08/25 12:32:57;;;;;;;2.28;1.60;;;;;;;;;;5046320;28;20120;-47
2022/08/25 12:35:29;;;;;;;10.82;1.90;;;;;;;;;;5048297;28;20543;-46
2022/08/25 12:38:01;;;;;;;4.82;2.10;;;;;;;;;;5042757;28;20048;-47
2022/08/25 12:40:34;;;;;;;3.80;1.60;;;;;;;;;;5047099;28;20116;-47
2022/08/25 12:43:21;;;;;;;2.53;1.40;;;;;;;;;;5046073;28;20474;-47
2022/08/25 12:45:49;;;;;;;2.53;1.50;;;;;;;;;;5043232;28;20198;-47
2022/08/25 12:48:27;;;;;;;3.05;1.70;;;;;;;;;;5047918;28;20028;-50
2022/08/25 12:51:08;;;;;;;3.25;1.50;;;;;;;;;;5045123;28;20028;-46
2022/08/25 12:53:42;;;;;;;;;;;;;;;;;;5027747;28;20026;-50
2022/08/25 12:56:37;;;;;;;4.45;1.48;;;;;;;;;;5045681;28;20039;-46
2022/08/25 12:59:18;;;;;;;4.50;1.52;;;;;;;;;;5044797;28;20064;-52
2022/08/25 13:01:47;;;;;;;6.07;1.90;;;;;;;;;;5044674;28;20021;-46
2022/08/25 13:04:29;;;;;;;2.42;1.33;;;;;;;;;;5044067;28;20033;-47
2022/08/25 13:06:58;;;;;;;3.75;1.65;;;;;;;;;;5026789;28;20032;-48
2022/08/25 13:09:57;;;;;;;1.98;1.42;;;;;;;;;;5045451;28;20033;-48
2022/08/25 13:12:47;;;;;;;3.58;1.30;;;;;;;;;;4997234;28;20033;-52
2022/08/25 13:15:23;;;;;;;2.78;1.48;;;;;;;;;;4992276;28;20088;-47
2022/08/25 13:17:49;;;;;;;3.83;1.45;;;;;;;;;;4993387;28;20077;-46
2022/08/25 13:20:22;;;;;;;1.52;1.42;;;;;;;;;;4994051;28;20554;-48
2022/08/25 13:22:51;;;;;;;2.08;1.60;;;;;;;;;;4990726;28;20046;-46
2022/08/25 13:25:19;;;;;;;3.95;1.50;;;;;;;;;;4987744;28;20395;-46
2022/08/25 13:27:54;;;;;;;5.35;1.63;;;;;;;;;;4998104;28;20033;-48
2022/08/25 13:30:34;;;;;;;4.13;1.50;;;;;;;;;;4995764;28;20030;-52
2022/08/25 13:33:15;;;;;;;4.85;1.60;;;;;;;;;;4995991;28;20034;-49
2022/08/25 13:35:47;;;;;;;2.70;1.60;;;;;;;;;;4997862;28;20200;-48
2022/08/25 13:38:14;;;;;;;4.03;1.63;;;;;;;;;;4994287;28;20649;-47
2022/08/25 13:40:41;;;;;;;4.63;1.65;;;;;;;;;;4988285;28;20550;-46
2022/08/25 13:43:10;;;;;;;5.47;2.08;;;;;;;;;;4997170;28;20042;-47
2022/08/25 13:45:45;;;;;;;3.53;1.92;;;;;;;;;;4994923;28;20514;-49
2022/08/25 13:48:13;;;;;;;6.35;2.05;;;;;;;;;;4979003;28;20062;-46
2022/08/25 13:50:41;;;;;;;4.93;2.00;;;;;;;;;;5040680;28;20040;-47
2022/08/25 13:53:20;;;;;;;4.28;2.00;;;;;;;;;;5044071;28;20397;-46
2022/08/25 13:56:21;;;;;;;6.57;2.05;;;;;;;;;;5042646;28;20045;-48
2022/08/25 13:58:47;;;;;;;7.57;2.42;;;;;;;;;;5047986;28;20029;-47
2022/08/25 14:01:17;;;;;;;5.80;2.85;;;;;;;;;;5041233;28;20025;-50
2022/08/25 14:03:45;;;;;;;7.20;2.90;;;;;;;;;;5044149;28;20020;-46
2022/08/25 14:06:14;;;;;;;6.57;2.47;;;;;;;;;;5042712;28;20029;-50
2022/08/25 14:08:43;;;;;;;9.70;2.70;;;;;;;;;;5046564;28;20032;-46
2022/08/25 14:11:10;;;;;;;8.50;2.92;;;;;;;;;;5043888;28;20112;-49
2022/08/25 14:13:38;;;;;;;5.53;2.90;;;;;;;;;;5044320;28;20029;-50
2022/08/25 14:16:13;;;;;;;8.45;3.25;;;;;;;;;;5040780;28;20029;-49
2022/08/25 14:18:47;;;;;;;5.10;2.53;;;;;;;;;;5041911;28;20508;-49
2022/08/25 14:21:13;;;;;;;5.55;2.45;;;;;;;;;;5046565;28;20057;-50
2022/08/25 14:23:39;;;;;;;6.07;2.45;;;;;;;;;;5043065;28;20055;-47
2022/08/25 14:26:05;;;;;;;5.57;2.50;;;;;;;;;;5045205;28;20032;-48
2022/08/25 14:28:32;;;;;;;3.47;2.05;;;;;;;;;;5047274;28;20374;-51
2022/08/25 14:31:03;;;;;;;4.93;2.58;;;;;;;;;;5047025;28;20018;-46
2022/08/25 14:33:34;;;;;;;2.75;2.30;;;;;;;;;;5042077;28;20028;-46
2022/08/25 14:36:03;;;;;;;5.10;2.25;;;;;;;;;;5043861;28;20036;-48
2022/08/25 14:38:29;;;;;;;5.18;2.45;;;;;;;;;;5044994;28;20037;-47
2022/08/25 14:40:55;;;;;;;6.07;2.83;;;;;;;;;;5043984;28;20021;-49
2022/08/25 14:43:21;;;;;;;3.92;2.33;;;;;;;;;;5044476;28;20029;-46
2022/08/25 14:45:47;;;;;;;3.95;2.28;;;;;;;;;;5045371;28;20036;-46
2022/08/25 14:48:24;;;;;;;2.85;2.40;;;;;;;;;;5044367;28;20474;-50
2022/08/25 14:50:51;;;;;;;6.05;2.30;;;;;;;;;;5041445;28;20117;-51
2022/08/25 14:53:17;;;;;;;4.97;2.50;;;;;;;;;;5027239;28;20430;-47
2022/08/25 14:55:42;;;;;;;10.35;2.47;;;;;;;;;;5044706;28;20123;-48
2022/08/25 14:58:08;;;;;;;8.90;2.75;;;;;;;;;;5044455;28;20029;-51
2022/08/25 15:00:38;;;;;;;10.48;2.35;;;;;;;;;;5044485;28;20119;-49
2022/08/25 15:03:04;;;;;;;6.85;2.22;;;;;;;;;;5027021;28;20044;-48
2022/08/25 15:05:30;;;;;;;6.70;2.03;;;;;;;;;;5045197;28;20474;-48
2022/08/25 15:10:40;;;;;;;6.90;2.10;;;;;;;;;;5043297;28;20099;-49
2022/08/25 15:13:07;;;;;;;4.63;2.15;;;;;;;;;;5043042;28;20071;-48
2022/08/25 15:15:37;;;;;;;5.30;2.22;;;;;;;;;;5045587;28;20469;-49